sensor_id;sensor_type;location;lat;lon;timestamp;P1;durP1;ratioP1;P2;durP2;ratioP2
26098;SDS011;13860;52.370;6.764;2024-03-23T00:52:51;30.67;;;6.45;;
26098;SDS011;13860;52.370;6.764;2024-03-23T00:55:54;33.53;;;7.93;;
26098;SDS011;13860;52.370;6.764;2024-03-23T00:58:58;23.23;;;6.22;;
26098;SDS011;13860;52.370;6.764;2024-03-23T01:01:59;32.67;;;7.18;;
26098;SDS011;13860;52.370;6.764;2024-03-23T01:05:04;26.42;;;7.60;;
26098;SDS011;13860;52.370;6.764;2024-03-23T01:08:08;28.77;;;6.03;;
26098;SDS011;13860;52.370;6.764;2024-03-23T01:11:12;36.00;;;6.88;;
26098;SDS011;13860;52.370;6.764;2024-03-23T01:14:14;36.85;;;5.13;;
26098;SDS011;13860;52.370;6.764;2024-03-23T01:17:18;24.08;;;5.57;;
26098;SDS011;13860;52.370;6.764;2024-03-23T01:20:19;33.58;;;6.60;;
26098;SDS011;13860;52.370;6.764;2024-03-23T01:23:26;29.42;;;6.07;;
26098;SDS011;13860;52.370;6.764;2024-03-23T01:26:27;24.73;;;5.43;;
26098;SDS011;13860;52.370;6.764;2024-03-23T01:29:31;27.80;;;6.28;;
26098;SDS011;13860;52.370;6.764;2024-03-23T01:32:33;30.00;;;5.78;;
26098;SDS011;13860;52.370;6.764;2024-03-23T01:35:37;29.27;;;5.18;;
26098;SDS011;13860;52.370;6.764;2024-03-23T01:38:43;23.05;;;4.43;;
26098;SDS011;13860;52.370;6.764;2024-03-23T01:41:47;34.30;;;5.72;;
26098;SDS011;13860;52.370;6.764;2024-03-23T01:44:49;25.23;;;4.35;;
26098;SDS011;13860;52.370;6.764;2024-03-23T01:47:52;31.23;;;5.05;;
26098;SDS011;13860;52.370;6.764;2024-03-23T01:50:54;34.38;;;5.35;;
26098;SDS011;13860;52.370;6.764;2024-03-23T01:54:01;24.38;;;5.60;;
26098;SDS011;13860;52.370;6.764;2024-03-23T01:57:04;36.03;;;4.78;;
26098;SDS011;13860;52.370;6.764;2024-03-23T02:00:10;38.92;;;5.43;;
26098;SDS011;13860;52.370;6.764;2024-03-23T02:03:22;23.92;;;5.43;;
26098;SDS011;13860;52.370;6.764;2024-03-23T02:06:27;21.13;;;5.10;;
26098;SDS011;13860;52.370;6.764;2024-03-23T02:09:31;33.05;;;6.15;;
26098;SDS011;13860;52.370;6.764;2024-03-23T02:12:35;45.90;;;7.15;;
26098;SDS011;13860;52.370;6.764;2024-03-23T02:15:39;30.38;;;5.28;;
26098;SDS011;13860;52.370;6.764;2024-03-23T02:18:42;22.35;;;4.95;;
26098;SDS011;13860;52.370;6.764;2024-03-23T02:21:44;35.80;;;5.60;;
26098;SDS011;13860;52.370;6.764;2024-03-23T02:24:51;26.42;;;5.43;;
26098;SDS011;13860;52.370;6.764;2024-03-23T02:27:53;33.88;;;4.72;;
26098;SDS011;13860;52.370;6.764;2024-03-23T02:30:57;22.60;;;4.88;;
26098;SDS011;13860;52.370;6.764;2024-03-23T02:33:58;32.58;;;5.20;;
26098;SDS011;13860;52.370;6.764;2024-03-23T02:37:02;30.17;;;4.82;;
26098;SDS011;13860;52.370;6.764;2024-03-23T02:40:13;29.48;;;4.68;;
26098;SDS011;13860;52.370;6.764;2024-03-23T02:43:17;30.50;;;5.65;;
26098;SDS011;13860;52.370;6.764;2024-03-23T02:46:20;31.05;;;4.68;;
26098;SDS011;13860;52.370;6.764;2024-03-23T02:49:23;20.15;;;4.40;;
26098;SDS011;13860;52.370;6.764;2024-03-23T02:52:26;26.15;;;4.47;;
26098;SDS011;13860;52.370;6.764;2024-03-23T02:55:32;21.92;;;4.25;;
26098;SDS011;13860;52.370;6.764;2024-03-23T02:58:34;30.23;;;4.50;;
26098;SDS011;13860;52.370;6.764;2024-03-23T03:01:37;34.13;;;6.90;;
26098;SDS011;13860;52.370;6.764;2024-03-23T03:04:39;31.02;;;5.72;;
26098;SDS011;13860;52.370;6.764;2024-03-23T03:07:43;27.70;;;4.68;;
26098;SDS011;13860;52.370;6.764;2024-03-23T03:10:47;28.88;;;5.03;;
26098;SDS011;13860;52.370;6.764;2024-03-23T03:13:51;30.30;;;7.22;;
26098;SDS011;13860;52.370;6.764;2024-03-23T03:16:53;30.55;;;4.82;;
26098;SDS011;13860;52.370;6.764;2024-03-23T03:19:56;31.73;;;5.53;;
26098;SDS011;13860;52.370;6.764;2024-03-23T03:22:58;20.17;;;4.78;;
26098;SDS011;13860;52.370;6.764;2024-03-23T03:26:04;23.25;;;5.60;;
26098;SDS011;13860;52.370;6.764;2024-03-23T03:29:06;33.92;;;6.22;;
26098;SDS011;13860;52.370;6.764;2024-03-23T03:32:10;30.88;;;5.88;;
26098;SDS011;13860;52.370;6.764;2024-03-23T03:35:12;25.17;;;5.60;;
26098;SDS011;13860;52.370;6.764;2024-03-23T03:41:20;37.13;;;5.63;;
26098;SDS011;13860;52.370;6.764;2024-03-23T03:44:23;36.17;;;6.88;;
26098;SDS011;13860;52.370;6.764;2024-03-23T03:47:25;27.75;;;6.38;;
26098;SDS011;13860;52.370;6.764;2024-03-23T03:50:29;31.00;;;6.75;;
26098;SDS011;13860;52.370;6.764;2024-03-23T03:53:30;40.65;;;7.30;;
26098;SDS011;13860;52.370;6.764;2024-03-23T03:56:37;29.65;;;6.43;;
26098;SDS011;13860;52.370;6.764;2024-03-23T03:59:38;34.00;;;7.05;;
26098;SDS011;13860;52.370;6.764;2024-03-23T04:02:42;27.35;;;7.30;;
26098;SDS011;13860;52.370;6.764;2024-03-23T04:05:49;26.90;;;6.85;;
26098;SDS011;13860;52.370;6.764;2024-03-23T04:08:54;31.25;;;6.63;;
26098;SDS011;13860;52.370;6.764;2024-03-23T04:11:58;28.90;;;6.82;;
26098;SDS011;13860;52.370;6.764;2024-03-23T04:15:02;27.38;;;6.93;;
26098;SDS011;13860;52.370;6.764;2024-03-23T04:18:04;37.13;;;8.88;;
26098;SDS011;13860;52.370;6.764;2024-03-23T04:21:08;22.80;;;6.70;;
26098;SDS011;13860;52.370;6.764;2024-03-23T04:24:09;31.10;;;7.15;;
26098;SDS011;13860;52.370;6.764;2024-03-23T04:27:16;27.17;;;6.60;;
26098;SDS011;13860;52.370;6.764;2024-03-23T04:30:18;32.67;;;6.97;;
26098;SDS011;13860;52.370;6.764;2024-03-23T04:36:23;27.40;;;5.97;;
26098;SDS011;13860;52.370;6.764;2024-03-23T04:39:26;32.13;;;7.80;;
26098;SDS011;13860;52.370;6.764;2024-03-23T04:42:31;25.55;;;6.22;;
26098;SDS011;13860;52.370;6.764;2024-03-23T04:45:34;24.13;;;7.30;;
26098;SDS011;13860;52.370;6.764;2024-03-23T04:48:36;27.83;;;7.22;;
26098;SDS011;13860;52.370;6.764;2024-03-23T04:54:42;29.27;;;7.78;;
26098;SDS011;13860;52.370;6.764;2024-03-23T05:00:53;31.58;;;7.68;;
26098;SDS011;13860;52.370;6.764;2024-03-23T05:03:57;30.85;;;8.00;;
26098;SDS011;13860;52.370;6.764;2024-03-23T05:06:59;28.35;;;6.57;;
26098;SDS011;13860;52.370;6.764;2024-03-23T05:10:03;31.48;;;7.78;;
26098;SDS011;13860;52.370;6.764;2024-03-23T05:13:08;24.55;;;7.18;;
26098;SDS011;13860;52.370;6.764;2024-03-23T05:16:11;33.53;;;7.63;;
26098;SDS011;13860;52.370;6.764;2024-03-23T05:19:13;29.00;;;8.65;;
26098;SDS011;13860;52.370;6.764;2024-03-23T05:22:17;37.30;;;8.60;;
26098;SDS011;13860;52.370;6.764;2024-03-23T05:25:18;25.75;;;7.35;;
26098;SDS011;13860;52.370;6.764;2024-03-23T05:28:25;30.02;;;7.50;;
26098;SDS011;13860;52.370;6.764;2024-03-23T05:31:27;28.00;;;7.57;;
26098;SDS011;13860;52.370;6.764;2024-03-23T05:34:32;29.95;;;7.95;;
26098;SDS011;13860;52.370;6.764;2024-03-23T05:37:34;27.33;;;8.45;;
26098;SDS011;13860;52.370;6.764;2024-03-23T05:40:38;26.63;;;8.52;;
26098;SDS011;13860;52.370;6.764;2024-03-23T05:43:42;30.77;;;8.35;;
26098;SDS011;13860;52.370;6.764;2024-03-23T05:46:46;35.47;;;8.27;;
26098;SDS011;13860;52.370;6.764;2024-03-23T05:49:48;29.60;;;8.63;;
26098;SDS011;13860;52.370;6.764;2024-03-23T05:52:52;37.85;;;9.00;;
26098;SDS011;13860;52.370;6.764;2024-03-23T05:55:59;42.15;;;9.63;;
26098;SDS011;13860;52.370;6.764;2024-03-23T05:59:06;26.98;;;8.75;;
26098;SDS011;13860;52.370;6.764;2024-03-23T06:02:08;40.88;;;10.35;;
26098;SDS011;13860;52.370;6.764;2024-03-23T06:05:12;26.52;;;9.05;;
26098;SDS011;13860;52.370;6.764;2024-03-23T06:08:13;36.35;;;10.15;;
26098;SDS011;13860;52.370;6.764;2024-03-23T06:11:17;40.58;;;9.20;;
26098;SDS011;13860;52.370;6.764;2024-03-23T06:14:21;26.55;;;10.10;;
26098;SDS011;13860;52.370;6.764;2024-03-23T06:17:25;32.45;;;9.93;;
26098;SDS011;13860;52.370;6.764;2024-03-23T06:20:27;29.98;;;10.18;;
26098;SDS011;13860;52.370;6.764;2024-03-23T06:23:31;46.50;;;10.73;;
26098;SDS011;13860;52.370;6.764;2024-03-23T06:26:32;33.83;;;10.63;;
26098;SDS011;13860;52.370;6.764;2024-03-23T06:29:39;30.38;;;11.90;;
26098;SDS011;13860;52.370;6.764;2024-03-23T06:32:40;29.73;;;10.20;;
26098;SDS011;13860;52.370;6.764;2024-03-23T06:38:50;33.83;;;8.68;;
26098;SDS011;13860;52.370;6.764;2024-03-23T06:41:54;41.33;;;10.52;;
26098;SDS011;13860;52.370;6.764;2024-03-23T06:44:59;33.40;;;8.73;;
26098;SDS011;13860;52.370;6.764;2024-03-23T06:48:03;27.27;;;8.57;;
26098;SDS011;13860;52.370;6.764;2024-03-23T06:51:05;28.85;;;8.52;;
26098;SDS011;13860;52.370;6.764;2024-03-23T06:54:09;26.38;;;7.95;;
26098;SDS011;13860;52.370;6.764;2024-03-23T06:57:11;30.55;;;8.38;;
26098;SDS011;13860;52.370;6.764;2024-03-23T07:00:18;21.15;;;7.43;;
26098;SDS011;13860;52.370;6.764;2024-03-23T07:03:20;22.25;;;7.40;;
26098;SDS011;13860;52.370;6.764;2024-03-23T07:09:25;28.80;;;6.00;;
26098;SDS011;13860;52.370;6.764;2024-03-23T07:12:30;21.10;;;7.25;;
26098;SDS011;13860;52.370;6.764;2024-03-23T07:15:34;24.73;;;5.78;;
26098;SDS011;13860;52.370;6.764;2024-03-23T07:18:38;23.77;;;5.80;;
26098;SDS011;13860;52.370;6.764;2024-03-23T07:21:40;24.15;;;4.88;;
26098;SDS011;13860;52.370;6.764;2024-03-23T07:27:45;9.15;;;2.08;;
26098;SDS011;13860;52.370;6.764;2024-03-23T07:31:02;10.55;;;2.28;;
26098;SDS011;13860;52.370;6.764;2024-03-23T07:34:04;5.40;;;1.33;;
26098;SDS011;13860;52.370;6.764;2024-03-23T07:40:10;3.95;;;1.13;;
26098;SDS011;13860;52.370;6.764;2024-03-23T07:43:14;5.95;;;1.67;;
26098;SDS011;13860;52.370;6.764;2024-03-23T07:46:20;10.10;;;1.70;;
26098;SDS011;13860;52.370;6.764;2024-03-23T07:49:41;9.10;;;1.40;;
26098;SDS011;13860;52.370;6.764;2024-03-23T07:52:43;3.95;;;1.05;;
26098;SDS011;13860;52.370;6.764;2024-03-23T07:55:51;5.93;;;1.15;;
26098;SDS011;13860;52.370;6.764;2024-03-23T07:58:55;3.33;;;1.00;;
26098;SDS011;13860;52.370;6.764;2024-03-23T08:02:01;8.68;;;1.67;;
26098;SDS011;13860;52.370;6.764;2024-03-23T08:05:03;7.65;;;1.20;;
26098;SDS011;13860;52.370;6.764;2024-03-23T08:08:07;4.70;;;1.25;;
26098;SDS011;13860;52.370;6.764;2024-03-23T08:11:09;4.57;;;1.90;;
26098;SDS011;13860;52.370;6.764;2024-03-23T08:17:17;6.25;;;2.20;;
26098;SDS011;13860;52.370;6.764;2024-03-23T08:20:21;9.93;;;2.20;;
26098;SDS011;13860;52.370;6.764;2024-03-23T08:23:22;2.58;;;1.52;;
26098;SDS011;13860;52.370;6.764;2024-03-23T08:26:27;5.40;;;2.00;;
26098;SDS011;13860;52.370;6.764;2024-03-23T08:29:28;3.95;;;1.38;;
26098;SDS011;13860;52.370;6.764;2024-03-23T08:32:35;10.27;;;1.95;;
26098;SDS011;13860;52.370;6.764;2024-03-23T08:35:38;16.98;;;2.78;;
26098;SDS011;13860;52.370;6.764;2024-03-23T08:38:42;13.93;;;2.63;;
26098;SDS011;13860;52.370;6.764;2024-03-23T08:41:43;12.63;;;2.20;;
26098;SDS011;13860;52.370;6.764;2024-03-23T08:44:47;11.90;;;3.95;;
26098;SDS011;13860;52.370;6.764;2024-03-23T08:47:51;11.35;;;2.90;;
26098;SDS011;13860;52.370;6.764;2024-03-23T08:50:58;12.55;;;2.45;;
26098;SDS011;13860;52.370;6.764;2024-03-23T08:54:01;12.75;;;2.88;;
26098;SDS011;13860;52.370;6.764;2024-03-23T08:57:05;13.48;;;2.72;;
26098;SDS011;13860;52.370;6.764;2024-03-23T09:00:08;11.07;;;2.40;;
26098;SDS011;13860;52.370;6.764;2024-03-23T09:03:15;5.28;;;1.85;;
26098;SDS011;13860;52.370;6.764;2024-03-23T09:06:17;9.73;;;2.05;;
26098;SDS011;13860;52.370;6.764;2024-03-23T09:09:21;10.13;;;2.00;;
26098;SDS011;13860;52.370;6.764;2024-03-23T09:12:22;8.38;;;2.95;;
26098;SDS011;13860;52.370;6.764;2024-03-23T09:15:26;10.88;;;2.33;;
26098;SDS011;13860;52.370;6.764;2024-03-23T09:18:31;8.90;;;2.25;;
26098;SDS011;13860;52.370;6.764;2024-03-23T09:21:36;10.60;;;2.22;;
26098;SDS011;13860;52.370;6.764;2024-03-23T09:24:38;9.88;;;2.08;;
26098;SDS011;13860;52.370;6.764;2024-03-23T09:27:42;8.98;;;2.13;;
26098;SDS011;13860;52.370;6.764;2024-03-23T09:30:43;6.38;;;2.05;;
26098;SDS011;13860;52.370;6.764;2024-03-23T09:36:52;13.95;;;2.45;;
26098;SDS011;13860;52.370;6.764;2024-03-23T09:42:57;10.65;;;2.10;;
26098;SDS011;13860;52.370;6.764;2024-03-23T09:46:01;8.80;;;2.10;;
26098;SDS011;13860;52.370;6.764;2024-03-23T09:49:06;5.43;;;1.80;;
26098;SDS011;13860;52.370;6.764;2024-03-23T09:52:10;4.53;;;1.40;;
26098;SDS011;13860;52.370;6.764;2024-03-23T09:55:12;9.43;;;2.13;;
26098;SDS011;13860;52.370;6.764;2024-03-23T09:58:17;14.10;;;2.00;;
26098;SDS011;13860;52.370;6.764;2024-03-23T10:01:19;13.07;;;1.77;;
26098;SDS011;13860;52.370;6.764;2024-03-23T10:04:38;12.13;;;3.78;;
26098;SDS011;13860;52.370;6.764;2024-03-23T10:07:40;9.05;;;3.00;;
26098;SDS011;13860;52.370;6.764;2024-03-23T10:10:45;9.18;;;2.25;;
26098;SDS011;13860;52.370;6.764;2024-03-23T10:13:47;11.05;;;2.70;;
26098;SDS011;13860;52.370;6.764;2024-03-23T10:16:51;16.05;;;2.30;;
26098;SDS011;13860;52.370;6.764;2024-03-23T10:19:55;9.13;;;2.30;;
26098;SDS011;13860;52.370;6.764;2024-03-23T10:22:59;12.35;;;2.85;;
26098;SDS011;13860;52.370;6.764;2024-03-23T10:26:12;15.15;;;2.58;;
26098;SDS011;13860;52.370;6.764;2024-03-23T10:29:20;14.23;;;3.10;;
26098;SDS011;13860;52.370;6.764;2024-03-23T10:32:22;18.77;;;3.45;;
26098;SDS011;13860;52.370;6.764;2024-03-23T10:35:28;13.68;;;2.67;;
26098;SDS011;13860;52.370;6.764;2024-03-23T10:38:30;7.53;;;2.20;;
26098;SDS011;13860;52.370;6.764;2024-03-23T10:41:34;14.63;;;2.67;;
26098;SDS011;13860;52.370;6.764;2024-03-23T10:44:37;18.45;;;3.03;;
26098;SDS011;13860;52.370;6.764;2024-03-23T10:47:41;10.57;;;2.20;;
26098;SDS011;13860;52.370;6.764;2024-03-23T10:50:45;10.57;;;1.40;;
26098;SDS011;13860;52.370;6.764;2024-03-23T10:53:49;7.18;;;0.93;;
26098;SDS011;13860;52.370;6.764;2024-03-23T10:56:56;1.42;;;0.65;;
26098;SDS011;13860;52.370;6.764;2024-03-23T11:00:04;3.58;;;0.68;;
26098;SDS011;13860;52.370;6.764;2024-03-23T11:06:44;2.30;;;0.70;;
26098;SDS011;13860;52.370;6.764;2024-03-23T11:09:46;1.48;;;0.63;;
26098;SDS011;13860;52.370;6.764;2024-03-23T11:12:50;9.65;;;1.15;;
26098;SDS011;13860;52.370;6.764;2024-03-23T11:15:51;5.47;;;1.00;;
26098;SDS011;13860;52.370;6.764;2024-03-23T11:18:58;10.50;;;1.23;;
26098;SDS011;13860;52.370;6.764;2024-03-23T11:22:42;7.75;;;1.13;;
26098;SDS011;13860;52.370;6.764;2024-03-23T11:25:46;6.22;;;1.40;;
26098;SDS011;13860;52.370;6.764;2024-03-23T11:28:48;9.23;;;1.90;;
26098;SDS011;13860;52.370;6.764;2024-03-23T11:31:52;5.95;;;1.20;;
26098;SDS011;13860;52.370;6.764;2024-03-23T11:34:54;5.15;;;1.35;;
26098;SDS011;13860;52.370;6.764;2024-03-23T11:38:07;8.68;;;1.38;;
26098;SDS011;13860;52.370;6.764;2024-03-23T11:41:09;6.50;;;1.23;;
26098;SDS011;13860;52.370;6.764;2024-03-23T11:44:17;5.38;;;1.30;;
26098;SDS011;13860;52.370;6.764;2024-03-23T11:47:22;4.65;;;1.05;;
26098;SDS011;13860;52.370;6.764;2024-03-23T11:50:25;5.60;;;1.25;;
26098;SDS011;13860;52.370;6.764;2024-03-23T11:53:30;2.80;;;1.27;;
26098;SDS011;13860;52.370;6.764;2024-03-23T11:56:33;2.85;;;0.82;;
26098;SDS011;13860;52.370;6.764;2024-03-23T11:59:35;6.80;;;1.48;;
26098;SDS011;13860;52.370;6.764;2024-03-23T12:02:40;3.50;;;1.00;;
26098;SDS011;13860;52.370;6.764;2024-03-23T12:05:42;6.32;;;0.82;;
26098;SDS011;13860;52.370;6.764;2024-03-23T12:08:54;4.25;;;1.00;;
26098;SDS011;13860;52.370;6.764;2024-03-23T12:12:08;9.45;;;2.13;;
26098;SDS011;13860;52.370;6.764;2024-03-23T12:15:13;8.57;;;2.17;;
26098;SDS011;13860;52.370;6.764;2024-03-23T12:18:16;8.20;;;1.90;;
26098;SDS011;13860;52.370;6.764;2024-03-23T12:21:20;11.90;;;2.28;;
26098;SDS011;13860;52.370;6.764;2024-03-23T12:24:24;15.55;;;3.33;;
26098;SDS011;13860;52.370;6.764;2024-03-23T12:27:28;18.42;;;3.10;;
26098;SDS011;13860;52.370;6.764;2024-03-23T12:30:30;2.53;;;1.08;;
26098;SDS011;13860;52.370;6.764;2024-03-23T12:33:34;11.73;;;2.83;;
26098;SDS011;13860;52.370;6.764;2024-03-23T12:36:35;5.03;;;1.15;;
26098;SDS011;13860;52.370;6.764;2024-03-23T12:39:42;4.85;;;1.10;;
26098;SDS011;13860;52.370;6.764;2024-03-23T12:42:43;5.22;;;1.00;;
26098;SDS011;13860;52.370;6.764;2024-03-23T12:45:47;5.82;;;1.23;;
26098;SDS011;13860;52.370;6.764;2024-03-23T12:48:49;2.70;;;1.08;;
26098;SDS011;13860;52.370;6.764;2024-03-23T12:51:53;3.95;;;1.05;;
26098;SDS011;13860;52.370;6.764;2024-03-23T12:54:59;2.95;;;1.00;;
26098;SDS011;13860;52.370;6.764;2024-03-23T12:58:02;2.20;;;0.68;;
26098;SDS011;13860;52.370;6.764;2024-03-23T13:01:04;4.40;;;0.88;;
26098;SDS011;13860;52.370;6.764;2024-03-23T13:04:09;2.15;;;1.08;;
26098;SDS011;13860;52.370;6.764;2024-03-23T13:07:13;3.65;;;1.20;;
26098;SDS011;13860;52.370;6.764;2024-03-23T13:10:19;9.43;;;2.33;;
26098;SDS011;13860;52.370;6.764;2024-03-23T13:13:21;6.18;;;1.23;;
26098;SDS011;13860;52.370;6.764;2024-03-23T13:16:25;10.18;;;2.00;;
26098;SDS011;13860;52.370;6.764;2024-03-23T13:19:27;17.30;;;2.28;;
26098;SDS011;13860;52.370;6.764;2024-03-23T13:22:30;4.93;;;2.25;;
26098;SDS011;13860;52.370;6.764;2024-03-23T13:25:35;13.35;;;2.33;;
26098;SDS011;13860;52.370;6.764;2024-03-23T13:28:39;14.63;;;2.13;;
26098;SDS011;13860;52.370;6.764;2024-03-23T13:31:40;9.98;;;2.50;;
26098;SDS011;13860;52.370;6.764;2024-03-23T13:34:44;17.23;;;3.10;;
26098;SDS011;13860;52.370;6.764;2024-03-23T13:37:46;8.98;;;2.20;;
26098;SDS011;13860;52.370;6.764;2024-03-23T13:40:56;11.32;;;2.80;;
26098;SDS011;13860;52.370;6.764;2024-03-23T13:43:58;9.48;;;2.00;;
26098;SDS011;13860;52.370;6.764;2024-03-23T13:47:02;13.45;;;2.30;;
26098;SDS011;13860;52.370;6.764;2024-03-23T13:50:05;14.88;;;3.22;;
26098;SDS011;13860;52.370;6.764;2024-03-23T13:53:10;15.25;;;2.80;;
26098;SDS011;13860;52.370;6.764;2024-03-23T13:56:15;12.35;;;2.65;;
26098;SDS011;13860;52.370;6.764;2024-03-23T13:59:19;10.15;;;1.95;;
26098;SDS011;13860;52.370;6.764;2024-03-23T14:02:21;8.73;;;1.77;;
26098;SDS011;13860;52.370;6.764;2024-03-23T14:05:25;11.82;;;2.00;;
26098;SDS011;13860;52.370;6.764;2024-03-23T14:08:26;15.38;;;1.73;;
26098;SDS011;13860;52.370;6.764;2024-03-23T14:11:33;11.45;;;2.30;;
26098;SDS011;13860;52.370;6.764;2024-03-23T14:14:34;12.77;;;2.08;;
26098;SDS011;13860;52.370;6.764;2024-03-23T14:17:38;8.45;;;1.50;;
26098;SDS011;13860;52.370;6.764;2024-03-23T14:20:40;10.80;;;1.55;;
26098;SDS011;13860;52.370;6.764;2024-03-23T14:23:44;6.50;;;1.35;;
26098;SDS011;13860;52.370;6.764;2024-03-23T14:26:48;7.35;;;1.30;;
26098;SDS011;13860;52.370;6.764;2024-03-23T14:29:52;6.18;;;1.10;;
26098;SDS011;13860;52.370;6.764;2024-03-23T14:32:54;5.80;;;1.27;;
26098;SDS011;13860;52.370;6.764;2024-03-23T14:35:57;5.50;;;1.25;;
26098;SDS011;13860;52.370;6.764;2024-03-23T14:38:59;9.93;;;1.30;;
26098;SDS011;13860;52.370;6.764;2024-03-23T14:42:05;6.57;;;1.60;;
26098;SDS011;13860;52.370;6.764;2024-03-23T14:45:08;12.65;;;3.05;;
26098;SDS011;13860;52.370;6.764;2024-03-23T14:48:12;6.80;;;1.67;;
26098;SDS011;13860;52.370;6.764;2024-03-23T14:51:13;10.48;;;2.83;;
26098;SDS011;13860;52.370;6.764;2024-03-23T14:54:17;7.00;;;1.55;;
26098;SDS011;13860;52.370;6.764;2024-03-23T14:57:22;12.63;;;1.70;;
26098;SDS011;13860;52.370;6.764;2024-03-23T15:00:25;15.00;;;2.15;;
26098;SDS011;13860;52.370;6.764;2024-03-23T15:03:27;8.43;;;1.73;;
26098;SDS011;13860;52.370;6.764;2024-03-23T15:06:32;9.32;;;2.08;;
26098;SDS011;13860;52.370;6.764;2024-03-23T15:09:34;8.90;;;1.75;;
26098;SDS011;13860;52.370;6.764;2024-03-23T15:12:43;9.43;;;1.20;;
26098;SDS011;13860;52.370;6.764;2024-03-23T15:15:44;6.00;;;1.30;;
26098;SDS011;13860;52.370;6.764;2024-03-23T15:18:48;6.95;;;1.30;;
26098;SDS011;13860;52.370;6.764;2024-03-23T15:21:50;12.65;;;2.15;;
26098;SDS011;13860;52.370;6.764;2024-03-23T15:24:54;14.30;;;1.95;;
26098;SDS011;13860;52.370;6.764;2024-03-23T15:27:58;10.23;;;2.05;;
26098;SDS011;13860;52.370;6.764;2024-03-23T15:31:02;7.50;;;1.73;;
26098;SDS011;13860;52.370;6.764;2024-03-23T15:34:04;6.93;;;1.45;;
26098;SDS011;13860;52.370;6.764;2024-03-23T15:40:10;10.13;;;1.08;;
26098;SDS011;13860;52.370;6.764;2024-03-23T15:43:17;3.60;;;1.08;;
26098;SDS011;13860;52.370;6.764;2024-03-23T15:46:19;2.55;;;0.95;;
26098;SDS011;13860;52.370;6.764;2024-03-23T15:49:23;4.60;;;1.58;;
26098;SDS011;13860;52.370;6.764;2024-03-23T15:52:24;6.35;;;1.70;;
26098;SDS011;13860;52.370;6.764;2024-03-23T15:55:28;9.48;;;1.42;;
26098;SDS011;13860;52.370;6.764;2024-03-23T15:58:33;9.20;;;1.70;;
26098;SDS011;13860;52.370;6.764;2024-03-23T16:01:37;10.25;;;1.23;;
26098;SDS011;13860;52.370;6.764;2024-03-23T16:04:39;8.63;;;1.70;;
26098;SDS011;13860;52.370;6.764;2024-03-23T16:07:43;5.97;;;1.30;;
26098;SDS011;13860;52.370;6.764;2024-03-23T16:10:44;5.93;;;1.38;;
26098;SDS011;13860;52.370;6.764;2024-03-23T16:13:51;7.68;;;1.38;;
26098;SDS011;13860;52.370;6.764;2024-03-23T16:16:52;10.95;;;1.63;;
26098;SDS011;13860;52.370;6.764;2024-03-23T16:19:56;11.27;;;2.83;;
26098;SDS011;13860;52.370;6.764;2024-03-23T16:22:58;8.95;;;1.80;;
26098;SDS011;13860;52.370;6.764;2024-03-23T16:26:02;6.10;;;1.38;;
26098;SDS011;13860;52.370;6.764;2024-03-23T16:29:06;3.47;;;0.82;;
26098;SDS011;13860;52.370;6.764;2024-03-23T16:32:11;2.95;;;1.00;;
26098;SDS011;13860;52.370;6.764;2024-03-23T16:35:15;4.88;;;0.93;;
26098;SDS011;13860;52.370;6.764;2024-03-23T16:38:20;6.07;;;0.77;;
26098;SDS011;13860;52.370;6.764;2024-03-23T16:41:21;5.10;;;1.23;;
26098;SDS011;13860;52.370;6.764;2024-03-23T16:44:28;9.13;;;1.70;;
26098;SDS011;13860;52.370;6.764;2024-03-23T16:47:29;8.68;;;1.25;;
26098;SDS011;13860;52.370;6.764;2024-03-23T16:50:34;7.40;;;1.15;;
26098;SDS011;13860;52.370;6.764;2024-03-23T16:53:36;6.45;;;1.35;;
26098;SDS011;13860;52.370;6.764;2024-03-23T16:56:41;7.13;;;1.55;;
26098;SDS011;13860;52.370;6.764;2024-03-23T16:59:45;4.60;;;1.20;;
26098;SDS011;13860;52.370;6.764;2024-03-23T17:02:49;6.88;;;2.05;;
26098;SDS011;13860;52.370;6.764;2024-03-23T17:05:51;4.85;;;1.70;;
26098;SDS011;13860;52.370;6.764;2024-03-23T17:08:55;8.93;;;2.70;;
26098;SDS011;13860;52.370;6.764;2024-03-23T17:11:57;8.80;;;1.60;;
26098;SDS011;13860;52.370;6.764;2024-03-23T17:15:06;5.93;;;1.75;;
26098;SDS011;13860;52.370;6.764;2024-03-23T17:18:09;10.30;;;2.28;;
26098;SDS011;13860;52.370;6.764;2024-03-23T17:21:12;9.18;;;1.90;;
26098;SDS011;13860;52.370;6.764;2024-03-23T17:24:14;6.32;;;1.52;;
26098;SDS011;13860;52.370;6.764;2024-03-23T17:27:18;3.58;;;1.30;;
26098;SDS011;13860;52.370;6.764;2024-03-23T17:30:23;9.18;;;2.83;;
26098;SDS011;13860;52.370;6.764;2024-03-23T17:33:26;7.43;;;1.70;;
26098;SDS011;13860;52.370;6.764;2024-03-23T17:36:28;7.30;;;1.60;;
26098;SDS011;13860;52.370;6.764;2024-03-23T17:39:32;5.75;;;1.33;;
26098;SDS011;13860;52.370;6.764;2024-03-23T17:42:34;6.32;;;1.45;;
26098;SDS011;13860;52.370;6.764;2024-03-23T17:45:40;10.95;;;1.60;;
26098;SDS011;13860;52.370;6.764;2024-03-23T17:48:42;7.78;;;1.73;;
26098;SDS011;13860;52.370;6.764;2024-03-23T17:51:46;7.78;;;1.88;;
26098;SDS011;13860;52.370;6.764;2024-03-23T17:54:48;12.63;;;3.33;;
26098;SDS011;13860;52.370;6.764;2024-03-23T17:57:52;10.48;;;2.55;;
26098;SDS011;13860;52.370;6.764;2024-03-23T18:00:56;11.90;;;3.15;;
26098;SDS011;13860;52.370;6.764;2024-03-23T18:04:00;9.18;;;1.95;;
26098;SDS011;13860;52.370;6.764;2024-03-23T18:07:01;7.88;;;1.23;;
26098;SDS011;13860;52.370;6.764;2024-03-23T18:13:08;6.40;;;1.65;;
26098;SDS011;13860;52.370;6.764;2024-03-23T18:16:14;8.00;;;1.50;;
26098;SDS011;13860;52.370;6.764;2024-03-23T18:19:16;8.95;;;1.52;;
26098;SDS011;13860;52.370;6.764;2024-03-23T18:22:19;3.95;;;1.20;;
26098;SDS011;13860;52.370;6.764;2024-03-23T18:25:21;7.72;;;1.55;;
26098;SDS011;13860;52.370;6.764;2024-03-23T18:28:25;2.92;;;1.10;;
26098;SDS011;13860;52.370;6.764;2024-03-23T18:31:29;7.32;;;1.88;;
26098;SDS011;13860;52.370;6.764;2024-03-23T18:34:33;6.80;;;1.45;;
26098;SDS011;13860;52.370;6.764;2024-03-23T18:37:35;6.97;;;1.60;;
26098;SDS011;13860;52.370;6.764;2024-03-23T18:40:43;7.32;;;1.45;;
26098;SDS011;13860;52.370;6.764;2024-03-23T18:43:45;5.28;;;1.33;;
26098;SDS011;13860;52.370;6.764;2024-03-23T18:46:52;6.07;;;1.60;;
26098;SDS011;13860;52.370;6.764;2024-03-23T18:49:56;5.20;;;1.20;;
26098;SDS011;13860;52.370;6.764;2024-03-23T18:52:59;7.88;;;3.10;;
26098;SDS011;13860;52.370;6.764;2024-03-23T18:56:01;10.48;;;3.53;;
26098;SDS011;13860;52.370;6.764;2024-03-23T18:59:05;8.23;;;3.63;;
26098;SDS011;13860;52.370;6.764;2024-03-23T19:02:09;11.35;;;2.38;;
26098;SDS011;13860;52.370;6.764;2024-03-23T19:05:13;7.22;;;3.28;;
26098;SDS011;13860;52.370;6.764;2024-03-23T19:08:15;10.35;;;3.47;;
26098;SDS011;13860;52.370;6.764;2024-03-23T19:11:19;5.78;;;2.60;;
26098;SDS011;13860;52.370;6.764;2024-03-23T19:14:20;6.43;;;2.13;;
26098;SDS011;13860;52.370;6.764;2024-03-23T19:17:27;4.82;;;1.60;;
26098;SDS011;13860;52.370;6.764;2024-03-23T19:20:28;8.75;;;1.35;;
26098;SDS011;13860;52.370;6.764;2024-03-23T19:23:32;3.30;;;1.38;;
26098;SDS011;13860;52.370;6.764;2024-03-23T19:26:35;6.00;;;2.03;;
26098;SDS011;13860;52.370;6.764;2024-03-23T19:29:38;8.20;;;1.83;;
26098;SDS011;13860;52.370;6.764;2024-03-23T19:32:43;5.68;;;1.40;;
26098;SDS011;13860;52.370;6.764;2024-03-23T19:35:54;4.72;;;2.25;;
26098;SDS011;13860;52.370;6.764;2024-03-23T19:38:56;8.57;;;2.80;;
26098;SDS011;13860;52.370;6.764;2024-03-23T19:42:00;11.82;;;5.40;;
26098;SDS011;13860;52.370;6.764;2024-03-23T19:45:02;18.05;;;6.85;;
26098;SDS011;13860;52.370;6.764;2024-03-23T19:48:09;12.30;;;3.70;;
26098;SDS011;13860;52.370;6.764;2024-03-23T19:51:11;6.55;;;2.35;;
26098;SDS011;13860;52.370;6.764;2024-03-23T19:54:15;15.43;;;5.80;;